Time;durP1;ratioP1;P1;durP2;ratioP2;P2;SDS_P1;SDS_P2;PMS_P1;PMS_P2;Temp;Humidity;BMP_temperature;BMP_pressure;BME280_temperature;BME280_humidity;BME280_pressure;Samples;Min_cycle;Max_cycle;Signal;HPM_P1;HPM_P2
2021/03/04 00:00:37;;;;;;;64.03;35.13;;;6.40;99.90;;;;;;4947303;28;20644;-72
2021/03/04 00:03:05;;;;;;;64.63;34.77;;;6.40;99.90;;;;;;4950348;29;20300;-72
2021/03/04 00:05:33;;;;;;;56.27;33.67;;;6.40;99.90;;;;;;4946639;28;20289;-72
2021/03/04 00:08:00;;;;;;;64.47;34.60;;;6.40;99.90;;;;;;4946560;29;20388;-72
2021/03/04 00:10:28;;;;;;;62.80;34.30;;;6.40;99.90;;;;;;4952594;28;20203;-73
2021/03/04 00:12:55;;;;;;;60.60;34.80;;;6.40;99.90;;;;;;4955933;28;20296;-72
2021/03/04 00:15:24;;;;;;;63.07;34.97;;;6.40;99.90;;;;;;4946341;28;20312;-73
2021/03/04 00:17:51;;;;;;;58.80;34.17;;;6.40;99.90;;;;;;4954975;28;20707;-73
2021/03/04 00:20:19;;;;;;;59.93;34.60;;;6.40;99.90;;;;;;4952672;28;20241;-73
2021/03/04 00:22:47;;;;;;;62.30;36.67;;;6.40;99.90;;;;;;4952920;29;20288;-73
2021/03/04 00:25:15;;;;;;;62.80;34.60;;;6.40;99.90;;;;;;4948056;28;20301;-72
2021/03/04 00:27:42;;;;;;;60.63;33.90;;;6.40;99.90;;;;;;4949878;28;20216;-72
2021/03/04 00:30:11;;;;;;;60.73;33.63;;;6.40;99.90;;;;;;4950835;29;20210;-72
2021/03/04 00:32:38;;;;;;;58.13;33.80;;;6.40;99.90;;;;;;4948702;28;20305;-72
2021/03/04 00:35:05;;;;;;;63.60;33.47;;;6.30;99.90;;;;;;4948232;29;20246;-73
2021/03/04 00:37:34;;;;;;;61.90;33.37;;;6.40;99.90;;;;;;4952389;28;20359;-73
2021/03/04 00:40:05;;;;;;;59.00;32.77;;;6.30;99.90;;;;;;4949746;28;20243;-73
2021/03/04 00:42:32;;;;;;;60.20;33.90;;;6.30;99.90;;;;;;4951885;29;20304;-73
2021/03/04 00:44:59;;;;;;;59.73;34.17;;;6.30;99.90;;;;;;4951372;28;20210;-72
2021/03/04 00:47:25;;;;;;;57.93;33.67;;;6.20;99.90;;;;;;4951873;28;20206;-73
2021/03/04 00:49:51;;;;;;;59.63;34.13;;;6.30;99.90;;;;;;4951521;28;20228;-73
2021/03/04 00:52:18;;;;;;;55.97;32.53;;;6.30;99.90;;;;;;4952995;28;20215;-72
2021/03/04 00:54:45;;;;;;;58.53;33.57;;;6.20;99.90;;;;;;4949380;28;20236;-72
2021/03/04 00:57:12;;;;;;;59.73;34.03;;;6.20;99.90;;;;;;4946815;28;20641;-73
2021/03/04 00:59:39;;;;;;;61.63;31.23;;;6.20;99.90;;;;;;4951059;28;20237;-72
2021/03/04 01:02:05;;;;;;;56.30;32.57;;;6.20;99.90;;;;;;4945114;28;20202;-72
2021/03/04 01:04:35;;;;;;;57.43;32.70;;;6.20;99.90;;;;;;4947188;29;20202;-73
2021/03/04 01:07:04;;;;;;;58.83;31.77;;;6.20;99.90;;;;;;4949491;28;20212;-72
2021/03/04 01:09:30;;;;;;;58.77;32.87;;;6.20;99.90;;;;;;4952057;28;20245;-74
2021/03/04 01:11:56;;;;;;;56.30;32.57;;;6.20;99.90;;;;;;4952604;28;20201;-73
2021/03/04 01:14:24;;;;;;;61.17;32.63;;;6.20;99.90;;;;;;4950734;28;20313;-72
2021/03/04 01:16:51;;;;;;;57.53;31.47;;;6.20;99.90;;;;;;4950663;28;20637;-72
2021/03/04 01:19:17;;;;;;;56.23;31.60;;;6.20;99.90;;;;;;4944425;29;20225;-72
2021/03/04 01:21:43;;;;;;;56.30;31.03;;;6.10;99.90;;;;;;4951688;28;20291;-72
2021/03/04 01:24:10;;;;;;;52.80;30.87;;;6.10;99.90;;;;;;4950462;28;20305;-73
2021/03/04 01:26:37;;;;;;;58.80;32.33;;;6.10;99.90;;;;;;4945155;28;20220;-73
2021/03/04 01:29:04;;;;;;;55.63;32.63;;;6.00;99.90;;;;;;4950821;28;20595;-73
2021/03/04 01:31:31;;;;;;;58.63;30.87;;;6.10;99.90;;;;;;4948183;28;20236;-72
2021/03/04 01:33:58;;;;;;;54.40;32.10;;;6.10;99.90;;;;;;4948788;29;20237;-73
2021/03/04 01:36:24;;;;;;;53.83;30.90;;;6.00;99.90;;;;;;4948360;29;20292;-73
2021/03/04 01:38:51;;;;;;;52.57;29.23;;;6.00;99.90;;;;;;4949676;29;20355;-72
2021/03/04 01:41:17;;;;;;;53.37;30.07;;;6.00;99.90;;;;;;4950810;29;20268;-74
2021/03/04 01:43:43;;;;;;;55.40;29.17;;;6.00;99.90;;;;;;4950927;28;20569;-73
2021/03/04 01:46:10;;;;;;;55.50;30.37;;;6.00;99.90;;;;;;4950247;28;20233;-73
2021/03/04 01:48:37;;;;;;;50.97;30.57;;;6.00;99.90;;;;;;4954595;28;20253;-71
2021/03/04 01:51:04;;;;;;;56.10;31.70;;;6.00;99.90;;;;;;4950192;28;20217;-73
2021/03/04 01:53:31;;;;;;;52.50;30.93;;;5.90;99.90;;;;;;4946677;28;20218;-73
2021/03/04 01:55:57;;;;;;;56.77;32.10;;;6.00;99.90;;;;;;4951045;28;20263;-73
2021/03/04 01:58:25;;;;;;;58.73;34.47;;;6.00;99.90;;;;;;4951627;28;20209;-73
2021/03/04 02:00:52;;;;;;;65.90;37.60;;;5.90;99.90;;;;;;4951860;28;20217;-75
2021/03/04 02:03:20;;;;;;;62.43;40.33;;;5.90;99.90;;;;;;4950850;28;20295;-76
2021/03/04 02:05:47;;;;;;;70.23;40.87;;;5.90;99.90;;;;;;4948680;28;20235;-75
2021/03/04 02:08:21;;;;;;;64.83;38.83;;;5.90;99.90;;;;;;4952277;29;20263;-74
2021/03/04 02:10:51;;;;;;;60.83;35.77;;;5.90;99.90;;;;;;4948410;28;20247;-76
2021/03/04 02:13:26;;;;;;;65.23;33.90;;;5.80;99.90;;;;;;4948028;29;20221;-75
2021/03/04 02:15:59;;;;;;;63.17;31.90;;;5.80;99.90;;;;;;4947151;28;20241;-75
2021/03/04 02:18:29;;;;;;;50.67;29.23;;;5.80;99.90;;;;;;4951611;28;20226;-76
2021/03/04 02:21:22;;;;;;;54.13;29.53;;;5.80;99.90;;;;;;4948536;28;20233;-74
2021/03/04 02:24:01;;;;;;;52.77;28.83;;;5.70;99.90;;;;;;4950513;29;20223;-75
2021/03/04 02:26:39;;;;;;;50.87;28.53;;;5.70;99.90;;;;;;4972570;28;20312;-75
2021/03/04 02:29:08;;;;;;;48.63;27.53;;;5.70;99.90;;;;;;4948436;29;20225;-76
2021/03/04 02:31:38;;;;;;;49.67;28.47;;;5.70;99.90;;;;;;4945028;28;20214;-77
2021/03/04 02:34:06;;;;;;;44.37;26.47;;;5.80;99.90;;;;;;4952607;28;20232;-75
2021/03/04 02:36:35;;;;;;;47.27;26.97;;;5.70;99.90;;;;;;4947661;28;20531;-77
2021/03/04 02:39:03;;;;;;;44.17;26.33;;;5.70;99.90;;;;;;4951009;28;20225;-76
2021/03/04 02:41:32;;;;;;;44.50;25.73;;;5.70;99.90;;;;;;4951333;29;20217;-77
2021/03/04 02:44:02;;;;;;;42.80;26.13;;;5.70;99.90;;;;;;4952433;29;20233;-74
2021/03/04 02:46:30;;;;;;;50.37;27.47;;;5.60;99.90;;;;;;4949812;28;20206;-76
2021/03/04 02:48:56;;;;;;;46.70;26.20;;;5.60;99.90;;;;;;4950921;28;20730;-76
2021/03/04 02:51:23;;;;;;;45.23;25.47;;;5.60;99.90;;;;;;4952993;28;20649;-75
2021/03/04 02:53:50;;;;;;;44.43;24.83;;;5.70;99.90;;;;;;4952905;29;20722;-76
2021/03/04 02:56:17;;;;;;;48.33;26.17;;;5.70;99.90;;;;;;4955419;28;20578;-76
2021/03/04 02:58:45;;;;;;;43.40;24.60;;;5.60;99.90;;;;;;4954740;28;22666;-76
2021/03/04 03:01:14;;;;;;;49.13;26.27;;;5.60;99.90;;;;;;4951757;28;20297;-76
2021/03/04 03:03:42;;;;;;;46.20;24.47;;;5.60;99.90;;;;;;4952711;28;20210;-74
2021/03/04 03:06:08;;;;;;;41.03;23.67;;;5.70;99.90;;;;;;4950862;28;20209;-76
2021/03/04 03:08:37;;;;;;;43.23;26.17;;;5.60;99.90;;;;;;4954584;28;20279;-76
2021/03/04 03:11:04;;;;;;;43.70;24.70;;;5.60;99.90;;;;;;4950924;28;20209;-75
2021/03/04 03:13:32;;;;;;;44.43;25.70;;;5.60;99.90;;;;;;4953626;28;20753;-76
2021/03/04 03:15:58;;;;;;;41.63;23.63;;;5.60;99.90;;;;;;4953189;29;20624;-77
2021/03/04 03:18:25;;;;;;;42.80;23.77;;;5.70;99.90;;;;;;4950721;28;20312;-75
2021/03/04 03:20:52;;;;;;;46.47;24.47;;;5.70;99.90;;;;;;4954297;28;20237;-76
2021/03/04 03:23:18;;;;;;;47.57;25.00;;;5.70;99.90;;;;;;4954100;29;20233;-77
2021/03/04 03:25:45;;;;;;;42.40;23.80;;;5.70;99.90;;;;;;4951721;28;20208;-76
2021/03/04 03:28:12;;;;;;;40.13;23.40;;;5.70;99.90;;;;;;4948669;28;20309;-75
2021/03/04 03:30:39;;;;;;;40.33;23.87;;;5.70;99.90;;;;;;4953183;29;20237;-75
2021/03/04 03:33:10;;;;;;;38.23;23.33;;;5.70;99.90;;;;;;4953364;29;20217;-76
2021/03/04 03:35:38;;;;;;;42.33;22.90;;;5.70;99.90;;;;;;4954878;28;20289;-75
2021/03/04 03:38:07;;;;;;;40.83;23.70;;;5.80;99.90;;;;;;4953257;28;20205;-75
2021/03/04 03:40:35;;;;;;;43.40;23.43;;;5.70;99.90;;;;;;4952524;29;20229;-75
2021/03/04 03:43:04;;;;;;;39.03;22.50;;;5.80;99.90;;;;;;4955606;29;20205;-76
2021/03/04 03:45:35;;;;;;;41.80;22.27;;;5.80;99.90;;;;;;4949349;28;20217;-75
2021/03/04 03:48:03;;;;;;;41.27;23.90;;;5.70;99.90;;;;;;4948639;29;20296;-76
2021/03/04 03:50:31;;;;;;;38.53;23.00;;;5.70;99.90;;;;;;4952206;28;20272;-74
2021/03/04 03:52:58;;;;;;;41.60;23.20;;;5.70;99.90;;;;;;4954142;29;20240;-76
2021/03/04 03:55:27;;;;;;;39.37;23.27;;;5.80;99.90;;;;;;4952120;28;20312;-75
2021/03/04 03:57:56;;;;;;;38.13;20.83;;;5.70;99.90;;;;;;4953906;28;20205;-76
2021/03/04 04:00:24;;;;;;;43.33;23.10;;;5.70;99.90;;;;;;4951941;28;20761;-76
2021/03/04 04:02:52;;;;;;;39.23;22.43;;;5.80;99.90;;;;;;4952114;28;20240;-75
2021/03/04 04:05:18;;;;;;;39.53;23.00;;;5.70;99.90;;;;;;4950352;29;20213;-77
2021/03/04 04:07:45;;;;;;;38.33;21.47;;;5.70;99.90;;;;;;4949991;28;20209;-75
2021/03/04 04:10:13;;;;;;;43.83;23.77;;;5.70;99.90;;;;;;4950924;28;20381;-76
2021/03/04 04:12:40;;;;;;;44.77;22.80;;;5.70;99.90;;;;;;4950138;28;20217;-76
2021/03/04 04:15:08;;;;;;;36.87;21.80;;;5.70;99.90;;;;;;4953635;28;20249;-75
2021/03/04 04:17:35;;;;;;;41.57;22.10;;;5.70;99.90;;;;;;4954129;29;20670;-75
2021/03/04 04:20:04;;;;;;;42.83;23.10;;;5.70;99.90;;;;;;4950315;28;20234;-74
2021/03/04 04:22:31;;;;;;;39.30;22.47;;;5.70;99.90;;;;;;4951929;28;20686;-77
2021/03/04 04:24:58;;;;;;;37.13;22.47;;;5.70;99.90;;;;;;4953450;28;20213;-76
2021/03/04 04:27:25;;;;;;;37.73;22.73;;;5.80;99.90;;;;;;4948848;28;20324;-77
2021/03/04 04:29:52;;;;;;;39.57;22.07;;;5.80;99.90;;;;;;4952634;28;20272;-77
2021/03/04 04:32:19;;;;;;;40.00;22.90;;;5.70;99.90;;;;;;4950228;29;20301;-75
2021/03/04 04:34:45;;;;;;;42.30;24.47;;;5.70;99.90;;;;;;4952402;28;20206;-77
2021/03/04 04:37:14;;;;;;;40.80;23.10;;;5.80;99.90;;;;;;4947972;28;21361;-77
2021/03/04 04:39:41;;;;;;;38.00;22.00;;;5.80;99.90;;;;;;4944970;28;20234;-76
2021/03/04 04:42:08;;;;;;;41.13;22.83;;;5.80;99.90;;;;;;4955245;28;20244;-75
2021/03/04 04:44:34;;;;;;;40.40;22.60;;;5.80;99.90;;;;;;4955124;29;20631;-78
2021/03/04 04:47:02;;;;;;;40.43;22.80;;;5.80;99.90;;;;;;4946910;28;20245;-76
2021/03/04 04:49:28;;;;;;;40.17;23.37;;;5.80;99.90;;;;;;4950708;28;20225;-76
2021/03/04 04:51:54;;;;;;;36.77;22.10;;;5.80;99.90;;;;;;4951485;29;20220;-76
2021/03/04 04:54:21;;;;;;;38.23;21.83;;;5.90;99.90;;;;;;4952287;28;20216;-75
2021/03/04 04:56:47;;;;;;;43.07;23.77;;;5.90;99.90;;;;;;4951465;29;20212;-76
2021/03/04 04:59:14;;;;;;;38.60;22.27;;;5.90;99.90;;;;;;4954255;28;20268;-77
2021/03/04 05:01:40;;;;;;;38.03;20.27;;;5.90;99.90;;;;;;4950388;28;20221;-76
2021/03/04 05:04:07;;;;;;;41.10;23.70;;;5.90;99.90;;;;;;4954434;28;20620;-77
2021/03/04 05:06:34;;;;;;;38.63;22.90;;;5.90;99.90;;;;;;4953355;28;20229;-76
2021/03/04 05:09:00;;;;;;;41.30;22.37;;;5.90;99.90;;;;;;4949493;28;20568;-77
2021/03/04 05:11:26;;;;;;;45.03;24.00;;;5.80;99.90;;;;;;4950408;28;20209;-76
2021/03/04 05:13:53;;;;;;;41.90;22.13;;;5.80;99.90;;;;;;4948721;28;20314;-75
2021/03/04 05:16:19;;;;;;;38.50;22.93;;;5.80;99.90;;;;;;4945784;28;20240;-77
2021/03/04 05:18:45;;;;;;;41.93;22.83;;;5.80;99.90;;;;;;4948601;28;20233;-77
2021/03/04 05:21:13;;;;;;;37.13;20.97;;;5.70;99.90;;;;;;4948700;28;20261;-77
2021/03/04 05:23:39;;;;;;;38.13;21.37;;;5.80;99.90;;;;;;4950492;29;20603;-77
2021/03/04 05:26:05;;;;;;;42.90;23.00;;;5.80;99.90;;;;;;4951343;28;20227;-76
2021/03/04 05:28:32;;;;;;;39.30;22.50;;;5.90;99.90;;;;;;4947085;28;20233;-76
2021/03/04 05:30:58;;;;;;;41.63;22.43;;;5.90;99.90;;;;;;4947564;29;20240;-76
2021/03/04 05:33:25;;;;;;;38.00;22.50;;;5.80;99.90;;;;;;4947561;29;20228;-78
2021/03/04 05:35:51;;;;;;;37.10;21.33;;;5.80;99.90;;;;;;4948949;29;20678;-77
2021/03/04 05:38:18;;;;;;;36.37;21.20;;;5.80;99.90;;;;;;4950858;28;20709;-78
2021/03/04 05:40:45;;;;;;;36.07;20.60;;;5.80;99.90;;;;;;4953684;28;20648;-78
2021/03/04 05:43:11;;;;;;;35.07;21.33;;;5.90;99.90;;;;;;4950120;28;20243;-76
2021/03/04 05:45:41;;;;;;;38.60;20.80;;;5.80;99.90;;;;;;4951639;28;20240;-76
2021/03/04 05:48:09;;;;;;;38.53;21.40;;;5.90;99.90;;;;;;4950984;28;20643;-77
2021/03/04 05:50:41;;;;;;;35.07;20.67;;;5.80;99.90;;;;;;4947714;28;20217;-76
2021/03/04 05:53:13;;;;;;;35.97;21.40;;;5.80;99.90;;;;;;4951164;28;20212;-76
2021/03/04 05:55:44;;;;;;;32.97;20.20;;;5.80;99.90;;;;;;4954547;28;20209;-79
2021/03/04 05:58:11;;;;;;;37.97;20.23;;;5.80;99.90;;;;;;4952296;28;20291;-79
2021/03/04 06:00:38;;;;;;;39.80;21.23;;;5.90;99.90;;;;;;4958711;28;20249;-79
2021/03/04 06:03:06;;;;;;;37.23;20.53;;;5.90;99.90;;;;;;4954025;29;20237;-79
2021/03/04 06:05:33;;;;;;;35.17;20.00;;;5.90;99.90;;;;;;4956736;28;20620;-81
2021/03/04 06:08:04;;;;;;;33.43;19.63;;;5.90;99.90;;;;;;4955976;28;20304;-80
2021/03/04 06:10:32;;;;;;;32.63;19.93;;;5.90;99.90;;;;;;4956997;28;20611;-80
2021/03/04 06:12:59;;;;;;;31.93;18.80;;;6.00;99.90;;;;;;4958524;28;20224;-79
2021/03/04 06:15:27;;;;;;;33.77;20.63;;;6.00;99.90;;;;;;4962085;28;20295;-80
2021/03/04 06:17:54;;;;;;;36.50;20.10;;;6.00;99.90;;;;;;4961444;28;20245;-80
2021/03/04 06:20:23;;;;;;;33.93;20.60;;;6.00;99.90;;;;;;4960819;28;20236;-80
2021/03/04 06:22:51;;;;;;;37.07;21.30;;;6.10;99.90;;;;;;4960472;28;20245;-80
2021/03/04 06:25:17;;;;;;;33.13;19.53;;;6.20;99.90;;;;;;4959772;29;20217;-79
2021/03/04 06:27:47;;;;;;;35.40;20.37;;;6.20;99.90;;;;;;4960465;28;20292;-74
2021/03/04 06:30:16;;;;;;;32.93;19.47;;;6.20;99.90;;;;;;4953686;29;20344;-76
2021/03/04 06:32:55;;;;;;;30.03;19.33;;;6.20;99.90;;;;;;4953272;28;20273;-75
2021/03/04 06:35:23;;;;;;;33.53;19.47;;;6.20;99.90;;;;;;4948453;28;20743;-74
2021/03/04 06:37:50;;;;;;;33.27;19.30;;;6.30;99.90;;;;;;4948005;28;20213;-75
2021/03/04 06:40:22;;;;;;;38.27;20.70;;;6.30;99.90;;;;;;4950348;28;20233;-74
2021/03/04 06:42:49;;;;;;;33.80;20.33;;;6.40;99.90;;;;;;4951637;29;20292;-75
2021/03/04 06:45:28;;;;;;;33.37;19.93;;;6.50;99.90;;;;;;4950603;28;20393;-75
2021/03/04 06:48:06;;;;;;;36.00;19.50;;;6.50;99.90;;;;;;4949575;28;20300;-76
2021/03/04 06:50:33;;;;;;;39.70;20.67;;;6.60;99.90;;;;;;4951956;28;20213;-76
2021/03/04 06:53:17;;;;;;;36.40;20.40;;;6.70;99.90;;;;;;4951133;28;20213;-76
2021/03/04 06:55:54;;;;;;;35.57;20.80;;;6.80;99.90;;;;;;4949306;29;20216;-76
2021/03/04 06:58:27;;;;;;;32.40;20.07;;;6.80;99.90;;;;;;4945698;28;20213;-75
2021/03/04 07:01:10;;;;;;;33.67;20.40;;;6.80;99.90;;;;;;4952463;28;20297;-75
2021/03/04 07:03:38;;;;;;;36.33;21.17;;;6.80;99.90;;;;;;4958514;29;20241;-76
2021/03/04 07:06:06;;;;;;;34.63;21.00;;;6.90;99.90;;;;;;4951100;29;20245;-79
2021/03/04 07:08:35;;;;;;;31.20;19.87;;;6.90;99.90;;;;;;4955050;28;20257;-77
2021/03/04 07:11:05;;;;;;;35.00;21.07;;;6.90;99.90;;;;;;4959734;28;20236;-76
2021/03/04 07:13:33;;;;;;;36.07;20.87;;;6.90;99.90;;;;;;4955793;28;20245;-76
2021/03/04 07:16:09;;;;;;;37.53;21.93;;;6.90;99.90;;;;;;4952909;28;20293;-73
2021/03/04 07:18:41;;;;;;;38.37;22.73;;;7.00;99.90;;;;;;4953379;29;20296;-77
2021/03/04 07:21:10;;;;;;;33.53;20.30;;;7.00;99.90;;;;;;4956634;28;20276;-76
2021/03/04 07:23:38;;;;;;;37.73;21.80;;;7.00;99.90;;;;;;4958374;29;20212;-77
2021/03/04 07:26:05;;;;;;;36.60;22.00;;;7.00;99.90;;;;;;4954444;28;20573;-78
2021/03/04 07:28:33;;;;;;;39.20;21.43;;;7.00;99.90;;;;;;4951343;29;20244;-74
2021/03/04 07:31:02;;;;;;;32.93;21.33;;;7.10;99.90;;;;;;4951837;29;20568;-77
2021/03/04 07:33:35;;;;;;;35.60;20.77;;;7.10;99.90;;;;;;4957304;29;20236;-80
2021/03/04 07:36:07;;;;;;;35.50;21.23;;;7.10;99.90;;;;;;4950043;29;20246;-76
2021/03/04 07:38:34;;;;;;;41.00;21.40;;;7.20;99.90;;;;;;4951302;28;20229;-80
2021/03/04 07:41:06;;;;;;;33.73;21.33;;;7.20;99.90;;;;;;4956024;29;20301;-80
2021/03/04 07:43:50;;;;;;;36.50;21.73;;;7.30;99.90;;;;;;4949937;29;20214;-76
2021/03/04 07:46:30;;;;;;;37.50;21.23;;;7.30;99.90;;;;;;4951361;29;20263;-75
2021/03/04 07:48:57;;;;;;;36.53;21.17;;;7.20;99.90;;;;;;4944535;28;20201;-76
2021/03/04 07:51:25;;;;;;;34.60;20.67;;;7.20;99.90;;;;;;4960749;28;20217;-80
2021/03/04 07:53:54;;;;;;;39.17;21.70;;;7.20;99.90;;;;;;4952864;28;20217;-75
2021/03/04 07:56:29;;;;;;;31.43;20.50;;;7.10;99.90;;;;;;4952661;28;20272;-75
2021/03/04 07:59:07;;;;;;;33.87;20.67;;;7.20;99.90;;;;;;4953916;28;20268;-75
2021/03/04 08:01:34;;;;;;;39.13;20.60;;;7.20;99.90;;;;;;4951560;28;20216;-76
2021/03/04 08:04:02;;;;;;;40.50;23.27;;;7.30;99.90;;;;;;4956145;28;20225;-73
2021/03/04 08:06:28;;;;;;;34.50;20.37;;;7.50;99.90;;;;;;4951507;28;20217;-76
2021/03/04 08:08:55;;;;;;;37.60;22.37;;;7.70;99.90;;;;;;4955251;28;20230;-72
2021/03/04 08:11:26;;;;;;;39.00;23.87;;;7.80;99.90;;;;;;4949556;28;20244;-71
2021/03/04 08:13:52;;;;;;;43.70;24.63;;;8.10;99.90;;;;;;4951100;28;20233;-73
2021/03/04 08:16:20;;;;;;;39.33;24.90;;;8.20;99.90;;;;;;4948776;28;20297;-72
2021/03/04 08:18:53;;;;;;;36.77;22.37;;;8.20;99.90;;;;;;4945278;28;20303;-74
2021/03/04 08:21:20;;;;;;;39.37;24.63;;;8.30;99.90;;;;;;4944415;28;20707;-73
2021/03/04 08:23:47;;;;;;;40.93;26.53;;;8.30;99.90;;;;;;4961238;28;20269;-75
2021/03/04 08:26:22;;;;;;;41.13;25.07;;;8.20;99.90;;;;;;4957260;28;20210;-75
2021/03/04 08:28:49;;;;;;;42.10;26.53;;;8.10;99.90;;;;;;4956826;28;20244;-76
2021/03/04 08:31:16;;;;;;;46.07;28.13;;;8.00;99.90;;;;;;4945892;28;20202;-79
2021/03/04 08:33:53;;;;;;;43.67;27.60;;;7.90;99.90;;;;;;4950173;29;20305;-76
2021/03/04 08:36:22;;;;;;;45.77;28.90;;;7.80;99.90;;;;;;4949431;28;20293;-76
2021/03/04 08:38:49;;;;;;;50.07;31.00;;;7.70;99.90;;;;;;4961731;28;20239;-75
2021/03/04 08:41:21;;;;;;;46.07;30.63;;;7.70;99.90;;;;;;4955591;28;20589;-77
2021/03/04 08:43:48;;;;;;;48.83;30.17;;;7.80;99.90;;;;;;4955334;28;20602;-76
2021/03/04 08:46:18;;;;;;;48.77;33.37;;;7.90;99.90;;;;;;4952523;28;20217;-75
2021/03/04 08:48:45;;;;;;;53.57;32.37;;;7.90;99.90;;;;;;4953640;28;20209;-76
2021/03/04 08:51:12;;;;;;;53.70;34.87;;;8.00;99.90;;;;;;4950582;29;20347;-76
2021/03/04 08:53:40;;;;;;;48.93;31.97;;;8.00;99.90;;;;;;4954350;28;20564;-75
2021/03/04 08:56:08;;;;;;;49.10;32.10;;;8.00;99.90;;;;;;4954496;28;20496;-76
2021/03/04 08:58:40;;;;;;;48.83;30.70;;;7.90;99.90;;;;;;4959704;28;20217;-77
2021/03/04 09:01:07;;;;;;;46.03;29.57;;;7.80;99.90;;;;;;4956938;29;20253;-78
2021/03/04 09:03:35;;;;;;;40.33;26.80;;;7.70;99.90;;;;;;4966239;28;20346;-76
2021/03/04 09:06:06;;;;;;;40.73;28.27;;;7.50;99.90;;;;;;4957199;28;20663;-77
2021/03/04 09:08:34;;;;;;;42.90;28.30;;;7.40;99.90;;;;;;4955981;28;20690;-75
2021/03/04 09:11:03;;;;;;;43.07;28.27;;;7.30;99.90;;;;;;4954609;28;20201;-77
2021/03/04 09:13:30;;;;;;;42.27;27.20;;;7.20;99.90;;;;;;4952441;28;20234;-75
2021/03/04 09:16:02;;;;;;;44.93;28.00;;;7.00;99.90;;;;;;4958726;28;20282;-77
2021/03/04 09:18:31;;;;;;;43.77;26.37;;;6.90;99.90;;;;;;4951887;28;20209;-77
2021/03/04 09:20:59;;;;;;;39.07;22.90;;;6.80;99.90;;;;;;4956505;28;20245;-77
2021/03/04 09:23:26;;;;;;;35.73;23.20;;;6.70;99.90;;;;;;4951046;28;20202;-76
2021/03/04 09:25:57;;;;;;;36.03;23.53;;;6.60;99.90;;;;;;4960163;28;20713;-74
2021/03/04 09:28:25;;;;;;;39.83;25.37;;;6.50;99.90;;;;;;4951829;28;20240;-78
2021/03/04 09:30:51;;;;;;;38.30;22.53;;;6.40;99.90;;;;;;4947930;28;20718;-75
2021/03/04 09:33:19;;;;;;;36.77;21.43;;;6.30;99.90;;;;;;4942920;28;20214;-74
2021/03/04 09:36:03;;;;;;;33.93;22.83;;;6.30;99.90;;;;;;4946471;29;20217;-74
2021/03/04 09:38:31;;;;;;;32.20;21.90;;;6.30;99.90;;;;;;4945812;28;20647;-74
2021/03/04 09:41:08;;;;;;;35.13;23.33;;;6.20;99.90;;;;;;4939971;28;20706;-73
2021/03/04 09:43:40;;;;;;;41.40;23.40;;;6.20;99.90;;;;;;4942184;29;20289;-74
2021/03/04 09:46:07;;;;;;;42.23;25.17;;;6.20;99.90;;;;;;4949070;28;20517;-74
2021/03/04 09:48:35;;;;;;;35.93;22.87;;;6.10;99.90;;;;;;4945971;28;20241;-74
2021/03/04 09:51:02;;;;;;;37.67;24.30;;;6.10;99.90;;;;;;4947065;28;20229;-74
2021/03/04 09:53:29;;;;;;;35.00;22.17;;;6.10;99.90;;;;;;4939583;29;20646;-74
2021/03/04 09:55:55;;;;;;;35.63;23.20;;;6.00;99.90;;;;;;4937180;29;20213;-73
2021/03/04 09:58:24;;;;;;;35.53;22.90;;;5.90;99.90;;;;;;4943254;28;20201;-74
2021/03/04 10:00:57;;;;;;;37.87;22.77;;;5.90;99.90;;;;;;4948621;29;20312;-74
2021/03/04 10:03:32;;;;;;;35.87;23.20;;;5.90;99.90;;;;;;4948973;29;20681;-73
2021/03/04 10:05:59;;;;;;;36.10;20.50;;;5.80;99.90;;;;;;4951567;28;20710;-74
2021/03/04 10:08:25;;;;;;;37.67;21.40;;;5.80;99.90;;;;;;4946022;28;20243;-75
2021/03/04 10:10:52;;;;;;;31.27;21.17;;;5.80;99.90;;;;;;4946722;29;20201;-75
2021/03/04 10:13:26;;;;;;;35.83;21.17;;;5.80;99.90;;;;;;4944867;28;20606;-75
2021/03/04 10:15:53;;;;;;;31.53;20.27;;;5.70;99.90;;;;;;4949466;28;20297;-73
2021/03/04 10:18:21;;;;;;;31.20;20.90;;;5.70;99.90;;;;;;4948361;28;20209;-74
2021/03/04 10:20:48;;;;;;;32.20;21.23;;;5.80;99.90;;;;;;4949860;29;21470;-74
2021/03/04 10:23:16;;;;;;;34.07;21.27;;;5.80;99.90;;;;;;4953515;28;20205;-74
2021/03/04 10:25:43;;;;;;;32.87;21.40;;;5.80;99.90;;;;;;4945526;28;20243;-75
2021/03/04 10:28:10;;;;;;;31.03;20.50;;;5.80;99.90;;;;;;4947581;28;20237;-74
2021/03/04 10:30:38;;;;;;;33.37;20.77;;;5.80;99.90;;;;;;4943765;28;20645;-77
2021/03/04 10:33:06;;;;;;;38.37;20.50;;;5.80;99.90;;;;;;4950431;29;20305;-74
2021/03/04 10:35:35;;;;;;;31.67;20.57;;;5.80;99.90;;;;;;4947004;28;20305;-75
2021/03/04 10:38:02;;;;;;;32.80;20.13;;;5.80;99.90;;;;;;4935470;29;20294;-74
2021/03/04 10:40:28;;;;;;;31.40;19.77;;;5.80;99.90;;;;;;4941191;29;20706;-76
2021/03/04 10:42:55;;;;;;;30.83;19.37;;;5.80;99.90;;;;;;4936771;29;20353;-74
2021/03/04 10:45:21;;;;;;;31.87;19.63;;;5.80;99.90;;;;;;4939501;28;20261;-74
2021/03/04 10:47:48;;;;;;;32.27;20.37;;;5.70;99.90;;;;;;4942119;28;20243;-74
2021/03/04 10:50:16;;;;;;;34.77;20.37;;;5.70;99.90;;;;;;4941366;28;20202;-73
2021/03/04 10:52:44;;;;;;;28.40;18.50;;;5.70;99.90;;;;;;4943341;28;20288;-74
2021/03/04 10:55:11;;;;;;;33.20;19.57;;;5.60;99.90;;;;;;4947564;28;20233;-74
2021/03/04 10:57:38;;;;;;;30.83;18.97;;;5.60;99.90;;;;;;4951069;28;20217;-77
2021/03/04 11:00:06;;;;;;;30.97;19.27;;;5.50;99.90;;;;;;4940168;28;20316;-73
2021/03/04 11:02:33;;;;;;;28.70;18.77;;;5.50;99.90;;;;;;4954102;28;20256;-73
2021/03/04 11:04:59;;;;;;;28.37;17.67;;;5.50;99.90;;;;;;4941125;28;20334;-72
2021/03/04 11:07:25;;;;;;;28.97;17.23;;;5.50;99.90;;;;;;4950690;29;20412;-71
2021/03/04 11:09:53;;;;;;;27.13;17.77;;;5.40;99.90;;;;;;4954520;28;20303;-74
2021/03/04 11:12:20;;;;;;;32.27;19.00;;;5.50;99.90;;;;;;4952316;29;20213;-73
2021/03/04 11:14:47;;;;;;;29.97;18.13;;;5.40;99.90;;;;;;4948749;28;20844;-75
2021/03/04 11:17:13;;;;;;;31.50;18.33;;;5.40;99.90;;;;;;4954933;28;20293;-73
2021/03/04 11:19:40;;;;;;;30.20;18.63;;;5.40;99.90;;;;;;4952952;28;20225;-72
2021/03/04 11:22:06;;;;;;;32.47;18.43;;;5.40;99.90;;;;;;4955858;28;20268;-74
2021/03/04 11:24:33;;;;;;;28.73;17.53;;;5.30;99.90;;;;;;4945565;29;20254;-73
2021/03/04 11:27:00;;;;;;;28.33;18.07;;;5.40;99.90;;;;;;4948380;28;20209;-75
2021/03/04 11:29:27;;;;;;;28.73;17.73;;;5.40;99.90;;;;;;4951372;29;20221;-75
2021/03/04 11:31:53;;;;;;;29.90;17.60;;;5.40;99.90;;;;;;4955943;28;20241;-77
2021/03/04 11:34:20;;;;;;;28.47;17.43;;;5.30;99.90;;;;;;4944234;29;20210;-75
2021/03/04 11:36:46;;;;;;;28.87;17.30;;;5.30;99.90;;;;;;4944275;29;20218;-74
2021/03/04 11:39:13;;;;;;;29.67;18.03;;;5.30;99.90;;;;;;4945589;29;20206;-74
2021/03/04 11:41:41;;;;;;;30.73;17.63;;;5.20;99.90;;;;;;4947239;29;20674;-76
2021/03/04 11:44:08;;;;;;;28.13;17.30;;;5.20;99.90;;;;;;4946505;29;20216;-74
2021/03/04 11:46:35;;;;;;;28.67;16.67;;;5.20;99.90;;;;;;4945378;29;20263;-74
2021/03/04 11:49:02;;;;;;;27.17;15.07;;;5.30;99.90;;;;;;4943296;28;20249;-77
2021/03/04 11:51:29;;;;;;;26.27;15.07;;;5.30;99.90;;;;;;4950060;28;20300;-74
2021/03/04 11:53:55;;;;;;;21.27;13.60;;;5.30;99.90;;;;;;4946544;28;20308;-75
2021/03/04 11:56:22;;;;;;;26.03;14.57;;;5.30;99.90;;;;;;4951933;29;20232;-73
2021/03/04 11:58:49;;;;;;;22.57;13.77;;;5.30;99.90;;;;;;4947504;29;20213;-74
2021/03/04 12:01:16;;;;;;;26.37;14.90;;;5.30;99.90;;;;;;4944039;28;20699;-72
2021/03/04 12:03:43;;;;;;;23.30;13.80;;;5.30;99.90;;;;;;4950754;28;20221;-73
2021/03/04 12:06:09;;;;;;;22.30;13.77;;;5.40;99.90;;;;;;4950192;28;20213;-73
2021/03/04 12:08:35;;;;;;;24.57;14.57;;;5.40;99.90;;;;;;4945457;28;20213;-73
2021/03/04 12:11:02;;;;;;;25.57;14.20;;;5.40;99.90;;;;;;4947770;28;20236;-74
2021/03/04 12:13:31;;;;;;;25.80;15.23;;;5.40;99.90;;;;;;4955634;28;20229;-73
2021/03/04 12:15:58;;;;;;;25.30;15.13;;;5.30;99.90;;;;;;4949214;28;20616;-72
2021/03/04 12:18:25;;;;;;;29.43;16.83;;;5.30;99.90;;;;;;4958219;29;20205;-71
2021/03/04 12:20:52;;;;;;;26.23;14.83;;;5.40;99.90;;;;;;4950482;28;20268;-74
2021/03/04 12:23:18;;;;;;;25.40;15.30;;;5.40;99.90;;;;;;4956922;28;20218;-72
2021/03/04 12:25:45;;;;;;;25.73;15.60;;;5.40;99.90;;;;;;4948436;28;20218;-72
2021/03/04 12:28:11;;;;;;;25.40;15.77;;;5.30;99.90;;;;;;4953695;28;20244;-72
2021/03/04 12:30:38;;;;;;;26.23;15.00;;;5.30;99.90;;;;;;4942439;29;20268;-70
2021/03/04 12:33:04;;;;;;;26.97;15.87;;;5.20;99.90;;;;;;4946997;28;20233;-72
2021/03/04 12:35:32;;;;;;;30.40;17.27;;;5.10;99.90;;;;;;4947709;28;20726;-73
2021/03/04 12:37:58;;;;;;;29.83;16.03;;;5.10;99.90;;;;;;4947780;28;20269;-71
2021/03/04 12:40:26;;;;;;;30.17;17.53;;;5.00;99.90;;;;;;4947302;29;20226;-71